Time;durP1;ratioP1;P1;durP2;ratioP2;P2;SDS_P1;SDS_P2;PMS_P1;PMS_P2;Temp;Humidity;BMP_temperature;BMP_pressure;BME280_temperature;BME280_humidity;BME280_pressure;Samples;Min_cycle;Max_cycle;Signal;HPM_P1;HPM_P2
2023/08/12 00:02:03;;;;;;;7.25;4.22;;;15.50;99.90;;;;;;5136590;27;20186;-85
2023/08/12 00:04:34;;;;;;;10.23;4.20;;;15.70;99.90;;;;;;5132589;27;20204;-86
2023/08/12 00:07:04;;;;;;;7.28;4.45;;;15.80;99.90;;;;;;5132959;27;20188;-84
2023/08/12 00:09:35;;;;;;;8.60;3.78;;;15.80;99.90;;;;;;5132394;27;20221;-85
2023/08/12 00:12:08;;;;;;;6.28;3.78;;;15.90;99.90;;;;;;5145102;27;20186;-85
2023/08/12 00:14:39;;;;;;;5.50;3.97;;;15.90;99.90;;;;;;5151205;27;20189;-86
2023/08/12 00:17:09;;;;;;;7.53;3.92;;;16.10;99.90;;;;;;5130491;27;20194;-86
2023/08/12 00:19:40;;;;;;;7.97;3.80;;;16.20;99.90;;;;;;5131084;27;20293;-86
2023/08/12 00:22:11;;;;;;;7.03;3.65;;;16.20;99.90;;;;;;5150752;27;20185;-85
2023/08/12 00:24:42;;;;;;;6.57;3.55;;;16.30;99.90;;;;;;5152192;27;20196;-86
2023/08/12 00:27:15;;;;;;;6.72;3.80;;;16.40;99.90;;;;;;5151879;27;20204;-87
2023/08/12 00:29:45;;;;;;;5.97;3.72;;;16.50;99.90;;;;;;5151449;27;20220;-86
2023/08/12 00:32:16;;;;;;;8.65;3.80;;;16.50;99.90;;;;;;5140830;27;20202;-86
2023/08/12 00:34:47;;;;;;;6.45;3.72;;;16.60;99.90;;;;;;5149231;27;20194;-86
2023/08/12 00:37:17;;;;;;;7.32;4.03;;;16.50;99.90;;;;;;5140784;27;20212;-86
2023/08/12 00:39:48;;;;;;;7.72;4.32;;;16.60;99.90;;;;;;5135599;27;20201;-87
2023/08/12 00:42:22;;;;;;;6.40;4.18;;;16.70;99.90;;;;;;5135906;27;20214;-87
2023/08/12 00:44:53;;;;;;;8.80;5.03;;;16.70;99.90;;;;;;5139331;27;20194;-87
2023/08/12 00:47:24;;;;;;;6.75;4.05;;;16.80;99.90;;;;;;5148477;27;20190;-87
2023/08/12 00:49:57;;;;;;;5.65;3.92;;;16.90;99.90;;;;;;5164548;27;20227;-85
2023/08/12 00:52:28;;;;;;;6.70;3.58;;;16.80;99.90;;;;;;5145949;27;20213;-82
2023/08/12 00:54:59;;;;;;;9.43;4.32;;;16.90;99.90;;;;;;5136322;27;20653;-85
2023/08/12 00:57:31;;;;;;;7.18;4.07;;;17.00;99.90;;;;;;5141290;27;20671;-86
2023/08/12 01:00:04;;;;;;;7.13;3.53;;;17.10;99.90;;;;;;5135155;27;20201;-85
2023/08/12 01:02:35;;;;;;;7.40;3.78;;;17.20;99.90;;;;;;5137741;27;20192;-85
2023/08/12 01:05:06;;;;;;;4.93;3.10;;;17.20;99.90;;;;;;5145987;27;20193;-84
2023/08/12 01:07:37;;;;;;;7.40;3.80;;;17.30;99.90;;;;;;5152109;27;20201;-82
2023/08/12 01:10:10;;;;;;;5.93;3.60;;;17.40;99.90;;;;;;5150450;27;20224;-84
2023/08/12 01:12:49;;;;;;;4.90;3.28;;;17.40;99.90;;;;;;5134264;27;20194;-84
2023/08/12 01:15:23;;;;;;;3.67;2.80;;;17.40;99.90;;;;;;5135024;27;20208;-85
2023/08/12 01:17:55;;;;;;;5.43;3.08;;;17.30;99.90;;;;;;5144262;27;20228;-81
2023/08/12 01:20:27;;;;;;;3.78;2.78;;;17.40;99.90;;;;;;5155183;27;20196;-83
2023/08/12 01:23:04;;;;;;;5.78;2.70;;;17.50;99.90;;;;;;5154426;27;20201;-83
2023/08/12 01:25:36;;;;;;;5.82;2.80;;;17.60;99.90;;;;;;5154786;27;20219;-84
2023/08/12 01:28:08;;;;;;;5.28;2.08;;;17.80;99.90;;;;;;5146066;27;20190;-85
2023/08/12 01:30:46;;;;;;;4.45;2.38;;;18.00;99.90;;;;;;5133690;27;20259;-84
2023/08/12 01:33:24;;;;;;;5.20;2.53;;;18.00;99.90;;;;;;5133741;27;20494;-84
2023/08/12 01:36:02;;;;;;;3.85;2.35;;;18.20;99.90;;;;;;5142033;27;20328;-83
2023/08/12 01:38:35;;;;;;;5.18;2.40;;;18.20;99.90;;;;;;5155182;27;20201;-84
2023/08/12 01:41:09;;;;;;;4.90;2.55;;;18.40;99.90;;;;;;5143009;27;20563;-83
2023/08/12 01:43:41;;;;;;;4.32;2.47;;;18.50;99.90;;;;;;5153216;27;20203;-83
2023/08/12 01:46:13;;;;;;;5.78;2.17;;;18.60;99.90;;;;;;5153931;27;20197;-83
2023/08/12 01:48:44;;;;;;;4.97;2.22;;;18.60;99.90;;;;;;5153804;27;20690;-83
2023/08/12 01:51:15;;;;;;;6.30;2.75;;;18.80;99.90;;;;;;5150082;27;20255;-83
2023/08/12 01:53:45;;;;;;;5.47;2.40;;;18.90;99.70;;;;;;5133758;27;20202;-84
2023/08/12 01:56:18;;;;;;;6.13;2.78;;;18.90;99.70;;;;;;5134319;27;20198;-83
2023/08/12 01:58:49;;;;;;;5.55;2.40;;;19.00;98.60;;;;;;5135126;27;20675;-84
2023/08/12 02:01:19;;;;;;;5.30;2.22;;;19.00;98.60;;;;;;5132834;27;20190;-84
2023/08/12 02:03:50;;;;;;;5.18;2.70;;;19.00;98.50;;;;;;5132927;27;20205;-84
2023/08/12 02:06:21;;;;;;;4.95;2.08;;;19.10;97.10;;;;;;5151590;27;20201;-85
2023/08/12 02:08:52;;;;;;;3.50;2.28;;;19.20;96.70;;;;;;5154369;27;20691;-84
2023/08/12 02:11:25;;;;;;;3.83;2.20;;;19.30;96.00;;;;;;5154130;27;20657;-84
2023/08/12 02:13:56;;;;;;;4.25;2.08;;;19.40;94.70;;;;;;5140887;27;20205;-85
2023/08/12 02:16:28;;;;;;;3.63;2.03;;;19.40;93.40;;;;;;5135999;27;20182;-84
2023/08/12 02:18:59;;;;;;;5.60;2.30;;;19.40;92.40;;;;;;5136213;27;20243;-85
2023/08/12 02:21:30;;;;;;;4.13;1.90;;;19.50;92.70;;;;;;5148174;27;20204;-83
2023/08/12 02:24:01;;;;;;;5.00;2.47;;;19.50;92.10;;;;;;5134487;27;20225;-84
2023/08/12 02:26:34;;;;;;;3.47;2.20;;;19.40;91.80;;;;;;5135187;27;20197;-82
2023/08/12 02:29:04;;;;;;;4.00;1.98;;;19.50;91.70;;;;;;5133460;27;20225;-83
2023/08/12 02:31:36;;;;;;;3.78;2.15;;;19.60;90.50;;;;;;5133886;27;20201;-83
2023/08/12 02:34:07;;;;;;;4.28;2.10;;;19.50;90.80;;;;;;5133515;27;20198;-83
2023/08/12 02:36:38;;;;;;;3.47;2.20;;;19.60;90.80;;;;;;5134203;27;20198;-83
2023/08/12 02:39:10;;;;;;;4.88;2.08;;;19.50;89.90;;;;;;5145145;27;20211;-83
2023/08/12 02:41:42;;;;;;;4.20;2.22;;;19.50;89.70;;;;;;5154748;27;20197;-84
2023/08/12 02:44:13;;;;;;;4.63;2.28;;;19.50;90.10;;;;;;5154290;27;20201;-83
2023/08/12 02:46:44;;;;;;;3.95;1.80;;;19.50;90.00;;;;;;5153953;27;20193;-83
2023/08/12 02:49:15;;;;;;;5.80;1.92;;;19.50;90.20;;;;;;5154568;27;20224;-83
2023/08/12 02:51:45;;;;;;;2.45;1.60;;;19.60;88.10;;;;;;5155334;27;20194;-84
2023/08/12 02:54:16;;;;;;;4.43;2.10;;;19.60;87.30;;;;;;5149780;27;20204;-83
2023/08/12 02:56:49;;;;;;;4.18;1.90;;;19.70;87.10;;;;;;5134114;27;20277;-84
2023/08/12 02:59:20;;;;;;;3.45;1.50;;;19.60;84.10;;;;;;5134593;27;20564;-82
2023/08/12 03:01:54;;;;;;;7.30;2.13;;;19.50;86.80;;;;;;5135224;27;21092;-83
2023/08/12 03:04:24;;;;;;;3.10;1.65;;;19.40;86.60;;;;;;5135346;27;20632;-84
2023/08/12 03:06:55;;;;;;;8.15;1.90;;;19.40;85.70;;;;;;5134822;27;20194;-82
2023/08/12 03:09:26;;;;;;;4.25;1.70;;;19.60;86.30;;;;;;5135785;27;20213;-83
2023/08/12 03:12:01;;;;;;;3.35;1.70;;;19.80;86.60;;;;;;5141481;27;20225;-83
2023/08/12 03:14:34;;;;;;;3.90;1.98;;;20.00;83.70;;;;;;5135447;27;20205;-86
2023/08/12 03:17:05;;;;;;;4.90;1.83;;;20.10;82.60;;;;;;5134425;27;20205;-84
2023/08/12 03:19:37;;;;;;;3.58;1.52;;;20.30;81.10;;;;;;5135194;27;20317;-83
2023/08/12 03:22:08;;;;;;;3.20;1.65;;;20.50;79.30;;;;;;5140988;27;20226;-84
2023/08/12 03:24:39;;;;;;;3.80;1.77;;;20.70;78.50;;;;;;5134986;27;20549;-83
2023/08/12 03:27:15;;;;;;;3.72;1.77;;;20.80;77.10;;;;;;5134909;27;20205;-84
2023/08/12 03:29:46;;;;;;;3.28;1.63;;;20.90;74.20;;;;;;5135395;27;20212;-84
2023/08/12 03:32:17;;;;;;;3.80;1.80;;;20.70;73.20;;;;;;5136190;27;20198;-83
2023/08/12 03:34:48;;;;;;;4.25;1.90;;;20.60;72.60;;;;;;5134446;27;20197;-83
2023/08/12 03:37:19;;;;;;;4.13;1.90;;;20.60;73.30;;;;;;5140508;27;20200;-84
2023/08/12 03:39:51;;;;;;;3.42;1.50;;;20.40;71.70;;;;;;5152977;27;20199;-84
2023/08/12 03:42:24;;;;;;;5.18;1.80;;;20.30;71.20;;;;;;5154245;27;20216;-83
2023/08/12 03:44:55;;;;;;;4.63;1.67;;;20.30;70.80;;;;;;5134767;27;20205;-83
2023/08/12 03:47:26;;;;;;;5.65;1.80;;;20.20;71.00;;;;;;5135222;27;20615;-84
2023/08/12 03:49:58;;;;;;;4.18;1.73;;;20.10;70.00;;;;;;5156279;27;20265;-83
2023/08/12 03:52:29;;;;;;;6.28;2.10;;;20.10;70.90;;;;;;5152446;27;20189;-84
2023/08/12 03:55:00;;;;;;;5.00;1.77;;;20.10;71.40;;;;;;5154375;27;20631;-84
2023/08/12 03:57:33;;;;;;;6.20;2.00;;;20.10;71.50;;;;;;5137501;27;20193;-84
2023/08/12 04:00:06;;;;;;;3.50;1.98;;;20.10;70.90;;;;;;5133429;27;20197;-84
2023/08/12 04:02:38;;;;;;;6.43;3.00;;;20.10;69.90;;;;;;5132253;27;20202;-84
2023/08/12 04:05:09;;;;;;;5.88;1.90;;;20.20;69.20;;;;;;5132178;27;20194;-85
2023/08/12 04:07:41;;;;;;;7.80;2.40;;;20.20;69.20;;;;;;5137067;27;20686;-84
2023/08/12 04:10:12;;;;;;;5.10;2.05;;;20.40;68.50;;;;;;5158359;27;20607;-84
2023/08/12 04:12:46;;;;;;;4.18;1.85;;;20.50;68.20;;;;;;5156501;27;20269;-85
2023/08/12 04:15:17;;;;;;;3.08;1.80;;;20.60;66.20;;;;;;5137382;27;20201;-85
2023/08/12 04:17:48;;;;;;;3.05;1.88;;;20.70;64.70;;;;;;5136200;27;20674;-85
2023/08/12 04:20:20;;;;;;;6.32;2.63;;;20.70;63.10;;;;;;5137582;27;20194;-85
2023/08/12 04:22:51;;;;;;;5.90;1.70;;;20.70;65.10;;;;;;5137538;27;20660;-84
2023/08/12 04:25:24;;;;;;;7.25;2.92;;;20.80;63.80;;;;;;5148937;27;20220;-85
2023/08/12 04:27:58;;;;;;;2.55;1.42;;;20.90;64.60;;;;;;5137522;27;20194;-85
2023/08/12 04:30:29;;;;;;;4.47;1.85;;;20.90;63.80;;;;;;5137407;27;20711;-84
2023/08/12 04:33:00;;;;;;;5.80;1.95;;;20.80;63.20;;;;;;5136344;27;20284;-84
2023/08/12 04:35:34;;;;;;;2.67;1.50;;;20.80;63.80;;;;;;5137821;27;20732;-84
2023/08/12 04:38:05;;;;;;;3.78;1.42;;;20.70;64.40;;;;;;5148161;27;20185;-85
2023/08/12 04:40:36;;;;;;;3.47;1.52;;;20.70;63.30;;;;;;5157077;27;20193;-84
2023/08/12 04:43:11;;;;;;;6.50;1.60;;;20.70;63.60;;;;;;5148605;27;20190;-83
2023/08/12 04:45:42;;;;;;;2.75;1.35;;;20.60;64.10;;;;;;5136029;27;20201;-83
2023/08/12 04:48:13;;;;;;;3.05;1.40;;;20.60;63.90;;;;;;5136099;27;20205;-83
2023/08/12 04:50:46;;;;;;;3.10;1.70;;;20.70;63.30;;;;;;5135616;27;20345;-84
2023/08/12 04:53:18;;;;;;;2.15;1.40;;;20.90;62.90;;;;;;5135382;27;20217;-84
2023/08/12 04:55:53;;;;;;;3.72;1.35;;;20.90;62.10;;;;;;5135642;27;20198;-84
2023/08/12 04:58:26;;;;;;;4.28;1.30;;;21.00;62.80;;;;;;5135219;27;20232;-84
2023/08/12 05:00:58;;;;;;;3.85;1.52;;;21.00;63.20;;;;;;5155279;27;20223;-84
2023/08/12 05:03:30;;;;;;;2.33;1.30;;;21.20;63.50;;;;;;5156063;27;20177;-84
2023/08/12 05:06:01;;;;;;;2.30;1.05;;;21.20;63.50;;;;;;5135824;27;20198;-86
2023/08/12 05:08:33;;;;;;;2.03;1.20;;;21.20;62.90;;;;;;5135342;27;20190;-85
2023/08/12 05:11:04;;;;;;;4.30;1.20;;;21.30;62.90;;;;;;5134870;27;20217;-85
2023/08/12 05:13:38;;;;;;;6.90;1.20;;;21.30;60.10;;;;;;5134437;27;20198;-84
2023/08/12 05:16:09;;;;;;;2.30;0.98;;;21.40;58.10;;;;;;5134805;27;20201;-85
2023/08/12 05:18:41;;;;;;;4.75;1.42;;;21.30;58.00;;;;;;5133890;27;20244;-83
2023/08/12 05:21:12;;;;;;;2.15;1.15;;;21.30;59.00;;;;;;5135246;27;20554;-84
2023/08/12 05:23:44;;;;;;;2.15;1.25;;;21.30;58.70;;;;;;5134413;27;20237;-85
2023/08/12 05:26:16;;;;;;;3.83;1.17;;;21.20;58.70;;;;;;5141067;27;20648;-85
2023/08/12 05:28:49;;;;;;;5.05;1.38;;;21.30;58.50;;;;;;5155474;27;20690;-84
2023/08/12 05:31:21;;;;;;;4.43;1.17;;;21.40;57.80;;;;;;5153772;27;20220;-83
2023/08/12 05:33:53;;;;;;;2.83;1.30;;;21.50;57.60;;;;;;5154900;27;20215;-83
2023/08/12 05:36:26;;;;;;;2.15;1.17;;;21.60;57.00;;;;;;5154779;27;20652;-83
2023/08/12 05:38:58;;;;;;;2.08;1.25;;;21.50;60.60;;;;;;5154592;27;20244;-84
2023/08/12 05:41:30;;;;;;;3.08;1.60;;;21.50;65.40;;;;;;5153795;27;20276;-84
2023/08/12 05:44:03;;;;;;;2.58;1.40;;;21.40;67.20;;;;;;5156023;27;20197;-85
2023/08/12 05:46:35;;;;;;;3.85;1.38;;;21.20;69.40;;;;;;5154678;27;20197;-83
2023/08/12 05:49:06;;;;;;;4.22;1.83;;;21.10;71.40;;;;;;5141701;27;20198;-84
2023/08/12 05:51:38;;;;;;;3.95;1.60;;;20.90;74.80;;;;;;5133995;27;20251;-84
2023/08/12 05:54:10;;;;;;;3.55;1.65;;;20.70;77.60;;;;;;5141644;27;20216;-84
2023/08/12 05:56:41;;;;;;;3.20;1.67;;;20.70;79.20;;;;;;5153978;27;20198;-83
2023/08/12 05:59:15;;;;;;;3.75;1.77;;;20.60;81.50;;;;;;5152987;27;20198;-84
2023/08/12 06:01:47;;;;;;;3.15;1.88;;;20.30;84.20;;;;;;5154044;27;20206;-83
2023/08/12 06:04:18;;;;;;;3.40;1.83;;;20.30;85.60;;;;;;5149558;27;20186;-84
2023/08/12 06:06:50;;;;;;;4.57;1.50;;;20.30;85.80;;;;;;5142960;27;20194;-83
2023/08/12 06:09:21;;;;;;;3.78;1.60;;;20.10;86.50;;;;;;5134101;27;20201;-83
2023/08/12 06:11:53;;;;;;;3.03;1.50;;;20.10;87.40;;;;;;5133946;27;20705;-84
2023/08/12 06:14:26;;;;;;;3.80;1.70;;;20.00;88.30;;;;;;5132569;27;20705;-84
2023/08/12 06:16:58;;;;;;;3.67;1.83;;;19.90;89.10;;;;;;5133458;27;20691;-84
2023/08/12 06:19:30;;;;;;;2.67;1.70;;;19.80;88.40;;;;;;5133297;27;20747;-83
2023/08/12 06:22:01;;;;;;;5.15;2.03;;;19.70;89.80;;;;;;5134117;27;20194;-84
2023/08/12 06:24:34;;;;;;;4.30;1.90;;;19.60;90.00;;;;;;5133520;27;20275;-83
2023/08/12 06:27:06;;;;;;;4.90;1.90;;;19.60;90.70;;;;;;5133345;27;20198;-83
2023/08/12 06:29:41;;;;;;;4.25;1.70;;;19.50;91.30;;;;;;5143518;27;20209;-84
2023/08/12 06:32:14;;;;;;;4.22;1.98;;;19.50;91.90;;;;;;5132844;27;20189;-84
2023/08/12 06:34:46;;;;;;;2.67;1.60;;;19.40;92.70;;;;;;5132778;27;20194;-85
2023/08/12 06:37:17;;;;;;;3.38;1.90;;;19.30;93.40;;;;;;5132158;27;20307;-84
2023/08/12 06:39:49;;;;;;;3.83;1.73;;;19.30;93.90;;;;;;5133472;27;20242;-84
2023/08/12 06:42:21;;;;;;;6.70;1.95;;;19.20;94.30;;;;;;5133062;27;20198;-83
2023/08/12 06:44:56;;;;;;;4.32;1.40;;;19.20;94.90;;;;;;5132417;27;20198;-83
2023/08/12 06:47:29;;;;;;;2.75;1.33;;;19.10;94.70;;;;;;5144507;27;20193;-83
2023/08/12 06:50:01;;;;;;;3.25;1.40;;;19.10;94.60;;;;;;5133639;27;20194;-83
2023/08/12 06:52:33;;;;;;;3.47;1.40;;;19.00;94.40;;;;;;5133523;27;20191;-83
2023/08/12 06:55:05;;;;;;;2.58;1.30;;;18.90;94.40;;;;;;5132741;27;20301;-84
2023/08/12 06:57:36;;;;;;;3.55;1.30;;;18.90;94.80;;;;;;5152832;27;20193;-84
2023/08/12 07:00:11;;;;;;;3.83;1.25;;;18.80;94.90;;;;;;5153414;27;20193;-84
2023/08/12 07:02:42;;;;;;;2.20;1.30;;;18.80;95.10;;;;;;5152328;27;20249;-83
2023/08/12 07:05:14;;;;;;;3.67;1.10;;;18.70;94.80;;;;;;5132906;27;20198;-82
2023/08/12 07:07:46;;;;;;;1.35;1.00;;;18.60;95.10;;;;;;5132623;27;20202;-83
2023/08/12 07:10:17;;;;;;;2.63;1.20;;;18.60;95.20;;;;;;5132225;27;20242;-83
2023/08/12 07:12:49;;;;;;;2.08;1.20;;;18.60;95.60;;;;;;5131848;27;20686;-83
2023/08/12 07:15:23;;;;;;;2.63;1.20;;;18.60;95.90;;;;;;5147929;27;20570;-83
2023/08/12 07:17:54;;;;;;;4.22;1.40;;;18.60;96.10;;;;;;5152398;27;20229;-83
2023/08/12 07:20:27;;;;;;;3.75;1.17;;;18.60;96.40;;;;;;5152015;27;20207;-83
2023/08/12 07:22:59;;;;;;;2.15;1.15;;;18.50;96.70;;;;;;5152864;27;20193;-82
2023/08/12 07:25:31;;;;;;;2.40;1.42;;;18.50;96.70;;;;;;5153137;27;20246;-83
2023/08/12 07:28:03;;;;;;;2.97;1.52;;;18.40;97.40;;;;;;5152861;27;20201;-84
2023/08/12 07:30:38;;;;;;;1.92;1.33;;;18.40;97.60;;;;;;5132889;27;20221;-83
2023/08/12 07:33:10;;;;;;;3.25;1.67;;;18.40;98.20;;;;;;5131980;27;20193;-83
2023/08/12 07:35:42;;;;;;;5.45;2.20;;;18.30;98.90;;;;;;5141721;27;20193;-83
2023/08/12 07:38:13;;;;;;;2.85;1.60;;;18.30;99.60;;;;;;5149971;27;20228;-83
2023/08/12 07:40:46;;;;;;;5.18;1.80;;;18.30;99.00;;;;;;5133918;27;20190;-84
2023/08/12 07:43:17;;;;;;;3.10;1.50;;;18.20;99.00;;;;;;5150246;27;20186;-83
2023/08/12 07:45:55;;;;;;;3.05;1.60;;;18.20;99.10;;;;;;5139980;27;20197;-83
2023/08/12 07:48:27;;;;;;;6.18;1.98;;;18.30;99.20;;;;;;5130834;27;20356;-83
2023/08/12 07:51:03;;;;;;;6.53;2.00;;;18.30;99.00;;;;;;5146094;27;20213;-86
2023/08/12 07:53:35;;;;;;;3.95;2.40;;;18.20;99.20;;;;;;5133511;27;20197;-85
2023/08/12 07:56:07;;;;;;;3.70;2.42;;;18.20;99.30;;;;;;5131808;27;20200;-85
2023/08/12 07:59:10;;;;;;;4.60;2.50;;;18.30;99.50;;;;;;5131844;27;20229;-86
2023/08/12 08:02:00;;;;;;;4.93;1.73;;;18.20;99.80;;;;;;5126377;27;20561;-85
2023/08/12 08:04:32;;;;;;;7.57;3.42;;;18.20;99.50;;;;;;5132216;27;20197;-85
2023/08/12 08:07:04;;;;;;;8.30;4.38;;;18.10;99.50;;;;;;5134801;27;20217;-84
2023/08/12 08:09:39;;;;;;;7.78;3.20;;;18.10;99.90;;;;;;5145486;27;20193;-85
2023/08/12 08:12:11;;;;;;;4.38;2.10;;;18.10;99.90;;;;;;5138464;27;20725;-85
2023/08/12 08:14:43;;;;;;;3.70;1.65;;;18.00;99.90;;;;;;5132263;27;20190;-85
2023/08/12 08:17:17;;;;;;;5.80;2.60;;;18.00;99.90;;;;;;5131862;27;20197;-84
2023/08/12 08:19:52;;;;;;;5.28;2.70;;;17.90;99.90;;;;;;5132026;27;20229;-86
2023/08/12 08:22:27;;;;;;;4.55;2.50;;;17.90;99.90;;;;;;5131525;27;20194;-85
2023/08/12 08:24:58;;;;;;;8.55;3.67;;;17.90;99.90;;;;;;5131801;27;20250;-85
2023/08/12 08:27:33;;;;;;;7.45;3.75;;;17.90;99.90;;;;;;5132066;28;20476;-86
2023/08/12 08:30:05;;;;;;;4.88;2.80;;;17.90;99.90;;;;;;5131625;27;20703;-85
2023/08/12 08:32:42;;;;;;;5.95;2.92;;;17.90;99.90;;;;;;5139359;27;20221;-84
2023/08/12 08:35:14;;;;;;;5.03;2.55;;;17.90;99.90;;;;;;5131318;27;20193;-84
2023/08/12 08:37:45;;;;;;;4.07;2.45;;;17.90;99.90;;;;;;5131752;27;20782;-84
2023/08/12 08:40:17;;;;;;;3.33;1.95;;;17.90;99.90;;;;;;5133477;28;20198;-85
2023/08/12 08:42:54;;;;;;;3.63;2.10;;;17.90;99.90;;;;;;5132303;28;20562;-85
2023/08/12 08:45:30;;;;;;;4.10;2.03;;;17.90;99.90;;;;;;5133621;27;20569;-85
2023/08/12 08:48:04;;;;;;;4.28;2.13;;;17.90;99.90;;;;;;5133820;27;20194;-83
2023/08/12 08:50:42;;;;;;;3.42;2.65;;;17.90;99.90;;;;;;5132850;27;20197;-86
2023/08/12 08:53:14;;;;;;;11.93;7.95;;;17.90;99.90;;;;;;5136136;27;20185;-84
2023/08/12 08:55:51;;;;;;;11.10;6.70;;;17.90;99.90;;;;;;5145729;27;20210;-84
2023/08/12 08:58:31;;;;;;;12.07;6.90;;;17.90;99.90;;;;;;5155892;27;20201;-86
2023/08/12 09:01:13;;;;;;;11.80;6.13;;;17.80;99.90;;;;;;5136613;27;20194;-86
2023/08/12 09:03:50;;;;;;;13.10;5.03;;;17.80;99.90;;;;;;5151342;27;20287;-86
2023/08/12 09:06:25;;;;;;;7.28;4.38;;;17.80;99.90;;;;;;5156671;27;20249;-85
2023/08/12 09:08:58;;;;;;;10.77;6.05;;;17.80;99.90;;;;;;5156782;27;20193;-85
2023/08/12 09:11:33;;;;;;;9.18;5.68;;;17.80;99.90;;;;;;5150375;27;20229;-86
2023/08/12 09:14:06;;;;;;;9.55;5.13;;;17.80;99.90;;;;;;5156363;27;20204;-85
2023/08/12 09:16:49;;;;;;;7.90;4.72;;;17.80;99.90;;;;;;5156008;27;20190;-85
2023/08/12 09:19:26;;;;;;;5.75;3.75;;;17.70;99.90;;;;;;5148542;27;20230;-86
2023/08/12 09:21:58;;;;;;;6.80;4.90;;;17.70;99.90;;;;;;5134716;27;20198;-85
2023/08/12 09:24:34;;;;;;;10.05;5.63;;;17.70;99.90;;;;;;5135274;27;20271;-86
2023/08/12 09:27:06;;;;;;;7.97;5.47;;;17.70;99.90;;;;;;5135449;27;20230;-85
2023/08/12 09:29:39;;;;;;;8.68;4.72;;;17.70;99.90;;;;;;5134629;27;20575;-85
2023/08/12 09:32:13;;;;;;;9.32;4.55;;;17.70;99.90;;;;;;5134604;27;20226;-84
2023/08/12 09:34:55;;;;;;;9.38;4.30;;;17.60;99.90;;;;;;5134968;27;20243;-85
2023/08/12 09:37:30;;;;;;;5.32;3.58;;;17.60;99.90;;;;;;5123860;27;20301;-85
2023/08/12 09:40:05;;;;;;;6.70;4.20;;;17.60;99.90;;;;;;5155563;27;20196;-85
2023/08/12 09:42:46;;;;;;;5.57;3.50;;;17.50;99.90;;;;;;5136593;27;20193;-85
2023/08/12 09:45:20;;;;;;;5.80;3.55;;;17.60;99.90;;;;;;5134626;27;20190;-86
2023/08/12 09:47:54;;;;;;;6.82;3.70;;;17.50;99.90;;;;;;5133803;27;20300;-85
2023/08/12 09:50:28;;;;;;;12.82;5.82;;;17.50;99.90;;;;;;5134401;27;20287;-86
2023/08/12 09:53:01;;;;;;;7.75;5.53;;;17.40;99.90;;;;;;5137853;27;20363;-85
2023/08/12 09:55:37;;;;;;;8.73;5.78;;;17.40;99.90;;;;;;5154643;27;20193;-85
2023/08/12 09:58:18;;;;;;;9.57;5.40;;;17.30;99.90;;;;;;5134919;27;20712;-85
2023/08/12 10:00:49;;;;;;;8.13;4.30;;;17.30;99.90;;;;;;5133753;27;20628;-85
2023/08/12 10:03:24;;;;;;;8.13;5.00;;;17.20;99.90;;;;;;5134354;27;20192;-85
2023/08/12 10:05:59;;;;;;;8.98;5.18;;;17.20;99.90;;;;;;5132464;27;20205;-86
2023/08/12 10:08:32;;;;;;;8.32;5.40;;;17.20;99.90;;;;;;5137466;27;20195;-85
2023/08/12 10:11:03;;;;;;;8.05;5.03;;;17.20;99.90;;;;;;5134101;27;20198;-85
2023/08/12 10:13:37;;;;;;;9.50;5.95;;;17.10;99.90;;;;;;5144751;27;20201;-86
2023/08/12 10:16:11;;;;;;;7.65;4.53;;;17.10;99.90;;;;;;5142000;27;20564;-86
2023/08/12 10:18:53;;;;;;;6.05;3.95;;;17.10;99.90;;;;;;5142411;27;20267;-87
2023/08/12 10:21:27;;;;;;;7.57;3.60;;;17.10;99.90;;;;;;5143927;27;20272;-86
2023/08/12 10:24:01;;;;;;;6.53;3.42;;;17.10;99.90;;;;;;5140383;27;20218;-87
2023/08/12 10:26:32;;;;;;;8.18;3.38;;;17.10;99.90;;;;;;5136654;27;20222;-86
2023/08/12 10:29:06;;;;;;;5.65;2.80;;;17.10;99.90;;;;;;5141758;27;20194;-87
2023/08/12 10:31:38;;;;;;;5.30;2.88;;;17.00;99.90;;;;;;5149634;27;20213;-86
2023/08/12 10:34:22;;;;;;;6.28;3.05;;;17.00;99.90;;;;;;5133550;27;20298;-87
2023/08/12 10:36:58;;;;;;;7.22;3.20;;;17.10;99.90;;;;;;5141474;27;20261;-86
2023/08/12 10:39:36;;;;;;;6.65;3.65;;;17.10;99.90;;;;;;5145825;27;20193;-87
2023/08/12 10:42:09;;;;;;;7.43;4.28;;;17.00;99.90;;;;;;5136216;27;20213;-86
2023/08/12 10:44:54;;;;;;;7.57;4.40;;;17.00;99.90;;;;;;5136542;27;20195;-86
2023/08/12 10:47:27;;;;;;;7.85;4.68;;;16.90;99.90;;;;;;5149845;27;20196;-87
2023/08/12 10:50:01;;;;;;;7.70;5.13;;;16.90;99.90;;;;;;5155349;27;20199;-86
2023/08/12 10:52:36;;;;;;;9.43;6.15;;;16.90;99.90;;;;;;5138855;27;20218;-86
2023/08/12 10:55:24;;;;;;;7.25;4.75;;;16.90;99.90;;;;;;5155223;27;20257;-87
2023/08/12 10:57:55;;;;;;;7.80;4.95;;;16.80;99.90;;;;;;5153330;27;20201;-86
2023/08/12 11:00:28;;;;;;;7.30;4.75;;;16.80;99.90;;;;;;5158266;27;20198;-84
2023/08/12 11:03:02;;;;;;;8.98;6.05;;;16.80;99.90;;;;;;5159272;27;20181;-85
2023/08/12 11:05:43;;;;;;;9.63;6.70;;;16.80;99.90;;;;;;5157887;27;20253;-86
2023/08/12 11:08:22;;;;;;;9.43;5.90;;;16.80;99.90;;;;;;5156324;27;20194;-87
2023/08/12 11:10:56;;;;;;;8.95;5.60;;;16.80;99.90;;;;;;5143471;27;20528;-86
2023/08/12 11:13:30;;;;;;;7.88;5.30;;;16.70;99.90;;;;;;5134070;27;20589;-86
2023/08/12 11:16:11;;;;;;;10.05;5.10;;;16.70;99.90;;;;;;5134861;27;20253;-86
2023/08/12 11:18:48;;;;;;;7.50;4.63;;;16.70;99.90;;;;;;5134452;27;20243;-87
2023/08/12 11:21:22;;;;;;;7.80;4.45;;;16.60;99.90;;;;;;5135138;27;20219;-87
2023/08/12 11:23:59;;;;;;;9.55;4.70;;;16.60;99.90;;;;;;5136496;27;20563;-87
2023/08/12 11:26:33;;;;;;;6.28;4.10;;;16.60;99.90;;;;;;5134585;27;20221;-86
2023/08/12 11:29:06;;;;;;;5.97;3.97;;;16.60;99.90;;;;;;5134862;27;20261;-88
2023/08/12 11:31:40;;;;;;;6.05;3.90;;;16.60;99.90;;;;;;5134420;27;20194;-86
2023/08/12 11:34:11;;;;;;;6.07;4.07;;;16.60;99.90;;;;;;5135123;27;20277;-86
2023/08/12 11:36:42;;;;;;;7.25;4.40;;;16.60;99.90;;;;;;5139768;27;20197;-87
2023/08/12 11:39:16;;;;;;;6.18;4.18;;;16.60;99.90;;;;;;5154565;27;20212;-87
2023/08/12 11:41:50;;;;;;;7.20;4.10;;;16.60;99.90;;;;;;5154935;27;20207;-86
2023/08/12 11:44:23;;;;;;;6.40;4.30;;;16.60;99.90;;;;;;5147598;27;20324;-88
2023/08/12 11:46:54;;;;;;;6.50;3.60;;;16.50;99.90;;;;;;5134605;27;20198;-87
2023/08/12 11:49:25;;;;;;;6.90;3.83;;;16.50;99.90;;;;;;5147811;27;20681;-87
2023/08/12 11:51:57;;;;;;;5.40;3.25;;;16.50;99.90;;;;;;5142820;27;20260;-87
2023/08/12 11:54:30;;;;;;;6.75;4.13;;;16.40;99.90;;;;;;5141205;27;20193;-87
2023/08/12 11:57:04;;;;;;;7.57;4.03;;;16.40;99.90;;;;;;5152157;27;20284;-88
2023/08/12 11:59:35;;;;;;;6.00;3.92;;;16.40;99.90;;;;;;5144362;27;20203;-87
2023/08/12 12:02:06;;;;;;;7.07;4.10;;;16.40;99.90;;;;;;5133869;27;20568;-87
2023/08/12 12:04:39;;;;;;;6.00;4.00;;;16.40;99.90;;;;;;5134976;27;20198;-87
2023/08/12 12:07:21;;;;;;;6.68;4.43;;;16.30;99.90;;;;;;5133412;27;20194;-86
2023/08/12 12:09:58;;;;;;;6.05;4.03;;;16.30;99.90;;;;;;5133485;28;20649;-88
2023/08/12 12:12:28;;;;;;;10.63;4.13;;;16.30;99.90;;;;;;5134484;28;20478;-85
2023/08/12 12:15:00;;;;;;;5.82;3.70;;;16.30;99.90;;;;;;5130751;27;20209;-85
2023/08/12 12:17:31;;;;;;;4.35;3.08;;;16.30;99.90;;;;;;5132372;28;20215;-85
2023/08/12 12:20:05;;;;;;;6.72;3.45;;;16.30;99.90;;;;;;5132130;27;20221;-86
2023/08/12 12:22:36;;;;;;;6.28;3.33;;;16.20;99.90;;;;;;5131972;27;20202;-86
2023/08/12 12:25:13;;;;;;;7.07;3.95;;;16.20;99.90;;;;;;5132244;28;20222;-86
2023/08/12 12:27:45;;;;;;;6.32;3.53;;;16.20;99.90;;;;;;5131057;27;20193;-87
2023/08/12 12:30:17;;;;;;;7.88;3.85;;;16.20;99.90;;;;;;5136154;27;20284;-87
2023/08/12 12:32:47;;;;;;;6.05;3.83;;;16.10;99.90;;;;;;5135480;27;20224;-87
2023/08/12 12:35:18;;;;;;;7.80;3.90;;;16.00;99.90;;;;;;5136885;27;20201;-86
2023/08/12 12:37:49;;;;;;;6.20;3.97;;;16.00;99.90;;;;;;5148666;27;20197;-85
2023/08/12 12:40:22;;;;;;;6.13;3.97;;;16.00;99.90;;;;;;5150292;27;20198;-84
2023/08/12 12:42:53;;;;;;;7.68;4.20;;;16.00;99.90;;;;;;5146480;27;20224;-83
2023/08/12 12:45:25;;;;;;;7.60;4.30;;;16.00;99.90;;;;;;5149716;27;20207;-85
2023/08/12 12:47:56;;;;;;;6.72;4.65;;;15.90;99.90;;;;;;5151224;27;20610;-86
2023/08/12 12:50:27;;;;;;;6.75;4.00;;;15.90;99.90;;;;;;5155819;27;20197;-88
2023/08/12 12:52:57;;;;;;;7.47;4.35;;;15.80;99.90;;;;;;5156721;27;20647;-88
2023/08/12 12:55:31;;;;;;;5.78;3.50;;;15.80;99.90;;;;;;5157240;27;20196;-87
2023/08/12 12:58:01;;;;;;;8.93;4.18;;;15.70;99.90;;;;;;5156687;27;20197;-87
2023/08/12 13:00:32;;;;;;;6.78;3.67;;;15.70;99.90;;;;;;5156241;27;20201;-87
2023/08/12 13:03:03;;;;;;;6.57;4.20;;;15.70;99.90;;;;;;5154558;27;20197;-87
2023/08/12 13:05:34;;;;;;;7.20;3.97;;;15.70;99.90;;;;;;5137272;27;20239;-86
2023/08/12 13:08:05;;;;;;;5.63;3.80;;;15.60;99.90;;;;;;5136208;27;20208;-86
2023/08/12 13:10:38;;;;;;;5.78;4.18;;;15.60;99.90;;;;;;5138783;27;20313;-86
2023/08/12 13:13:08;;;;;;;7.13;4.38;;;15.60;99.90;;;;;;5156443;27;20307;-86
2023/08/12 13:15:39;;;;;;;5.38;3.97;;;15.60;99.90;;;;;;5146111;27;20662;-86